TimeMST,TemperatureF,Dew PointF,Humidity,Sea Level PressureIn,VisibilityMPH,Wind Direction,Wind SpeedMPH,Gust SpeedMPH,PrecipitationIn,Events,Conditions,WindDirDegrees,DateUTC
12:53 AM,19.9,15.1,81,29.99,10.0,SW,11.5,-,N/A,,Clear,230,2013-02-22 07:53:00
1:53 AM,21.0,14.0,74,29.96,10.0,WSW,8.1,-,N/A,,Clear,240,2013-02-22 08:53:00
2:53 AM,21.0,12.9,71,29.95,10.0,Variable,4.6,-,N/A,,Clear,0,2013-02-22 09:53:00
3:53 AM,15.1,10.0,80,29.96,10.0,North,8.1,-,N/A,,Clear,10,2013-02-22 10:53:00
4:53 AM,16.0,12.9,88,29.99,10.0,Calm,Calm,-,N/A,,Clear,0,2013-02-22 11:53:00
5:53 AM,16.0,12.9,88,30.01,10.0,Calm,Calm,-,N/A,,Clear,0,2013-02-22 12:53:00
6:53 AM,18.0,14.0,84,30.05,10.0,SSW,4.6,-,N/A,,Scattered Clouds,210,2013-02-22 13:53:00
7:53 AM,23.0,17.1,78,30.04,10.0,Calm,Calm,-,N/A,,Mostly Cloudy,0,2013-02-22 14:53:00
8:53 AM,26.1,18.0,71,30.05,10.0,Calm,Calm,-,N/A,,Clear,0,2013-02-22 15:53:00
9:53 AM,28.9,18.0,64,30.04,10.0,Calm,Calm,-,N/A,,Mostly Cloudy,0,2013-02-22 16:53:00
10:53 AM,32.0,18.0,56,30.04,10.0,ESE,4.6,-,N/A,,Overcast,110,2013-02-22 17:53:00
11:53 AM,33.1,18.0,54,30.04,10.0,Variable,3.5,-,N/A,,Overcast,0,2013-02-22 18:53:00
12:53 PM,33.1,21.0,61,30.01,10.0,SSE,4.6,-,N/A,,Overcast,150,2013-02-22 19:53:00
1:53 PM,34.0,21.9,61,29.98,10.0,Calm,Calm,-,N/A,,Overcast,0,2013-02-22 20:53:00
2:53 PM,36.0,23.0,59,29.97,10.0,SE,5.8,-,N/A,,Overcast,140,2013-02-22 21:53:00
3:53 PM,37.0,24.1,59,29.99,10.0,SE,4.6,-,N/A,,Mostly Cloudy,130,2013-02-22 22:53:00
4:53 PM,36.0,25.0,64,29.98,10.0,Calm,Calm,-,N/A,,Partly Cloudy,0,2013-02-22 23:53:00
5:53 PM,34.0,24.1,67,30.01,10.0,Calm,Calm,-,N/A,,Mostly Cloudy,0,2013-02-23 00:53:00
6:29 PM,32.0,21.2,64,29.93,10.0,Calm,Calm,-,N/A,,Mostly Cloudy,0,2013-02-23 01:29:00
6:53 PM,34.0,24.1,67,30.01,10.0,Calm,Calm,-,N/A,,Overcast,0,2013-02-23 01:53:00
7:53 PM,28.9,21.9,75,30.02,10.0,WNW,5.8,-,N/A,,Mostly Cloudy,290,2013-02-23 02:53:00
8:53 PM,26.1,19.9,78,30.02,10.0,SW,3.5,-,N/A,,Clear,230,2013-02-23 03:53:00
9:53 PM,24.1,19.9,84,30.01,10.0,West,5.8,-,N/A,,Clear,280,2013-02-23 04:53:00
10:53 PM,23.0,19.9,88,29.99,9.0,SW,8.1,-,N/A,,Clear,220,2013-02-23 05:53:00
11:53 PM,24.1,21.0,88,29.97,9.0,SW,8.1,-,N/A,,Clear,220,2013-02-23 06:53:00